Latest Weather Observations for Warburton

IDW60801

Issued at 11:03 pm WST Monday 31 August 2026 (issued every 10 minutes, with the page automatically refreshed every 10 minutes)

About weather observations | Map of weather stations | Latest weather observations for WA | Other Formats
Station Details ID: 013011 Name: WARBURTON AIRFIELD Lat: -26.13 Lon: 126.58 Height: 459.0 m
Data from the previous 72 hours. | See also: Recent months at Warburton
Date/Time
WST
Temp
°C
App
Temp
°C
Dew
Point
°C
Rel
Hum
%
Delta-T
°C
Wind Press
QNH
hPa
Press
MSL
hPa
Rain since
9am
mm
Dir  Spd
km/h
Gust
km/h
Spd
kts
Gust
kts
31/11:00pm 22.8 18.8 4.8 31 9.1 NNE 15 17 8 9 1020.5 1019.7 0.0
31/10:30pm 21.8 18.5 4.8 33 8.6 NNE 11 15 6 8 1020.7 1019.9 0.0
31/10:00pm 22.4 18.7 4.5 31 9.0 NE 13 15 7 8 1021.0 1020.3 0.0
31/09:30pm 22.7 19.0 4.7 31 9.1 NE 13 17 7 9 1021.0 1020.3 0.0
31/09:00pm 22.9 19.3 4.9 31 9.1 NE 13 17 7 9 1021.2 1020.5 0.0
31/08:30pm 23.3 19.7 4.8 30 9.4 NE 13 17 7 9 1021.2 1020.5 0.0
31/08:00pm 23.5 20.6 4.9 30 9.5 NE 9 13 5 7 1021.2 1020.5 0.0
31/07:30pm 24.2 20.5 4.6 28 10.0 NE 13 15 7 8 1021.1 1020.4 0.0
31/07:00pm 24.2 21.0 5.1 29 9.8 NE 11 13 6 7 1021.0 1020.3 0.0
31/06:30pm 24.5 21.7 5.3 29 9.9 NE 9 11 5 6 1020.7 1019.9 0.0
31/06:00pm 25.5 23.1 5.1 27 10.5 E 7 9 4 5 1020.4 1019.6 0.0
31/05:30pm 27.7 24.7 4.1 22 12.2 NE 9 11 5 6 1020.1 1019.3 0.0
31/05:00pm 29.6 26.3 4.3 20 13.2 NE 11 15 6 8 1019.9 1019.1 0.0
31/04:30pm 30.3 27.2 3.4 18 13.9 N 9 11 5 6 1019.9 1019.1 0.0
31/04:00pm 30.5 27.9 4.3 19 13.8 NNE 7 11 4 6 1020.0 1019.2 0.0
31/03:30pm 30.2 26.7 3.3 18 13.9 N 11 17 6 9 1020.1 1019.3 0.0
31/03:00pm 30.3 26.9 4.1 19 13.7 N 11 26 6 14 1020.3 1019.5 0.0
31/02:30pm 30.2 25.7 4.0 19 13.7 N 17 22 9 12 1020.5 1019.7 0.0
31/02:00pm 29.9 25.3 3.8 19 13.5 N 17 24 9 13 1020.7 1019.9 0.0
31/01:30pm 29.8 24.7 2.9 18 13.8 NNE 19 28 10 15 1020.9 1020.2 0.0
31/01:00pm 29.8 25.0 4.4 20 13.3 NNE 19 30 10 16 1021.2 1020.5 0.0
31/12:30pm 29.3 22.9 3.3 19 13.4 N 26 37 14 20 1021.7 1020.9 0.0
31/12:00pm 28.7 23.2 4.2 21 12.7 N 22 32 12 17 1022.2 1021.4 0.0
31/11:30am 27.7 22.2 4.1 22 12.2 NNE 22 33 12 18 1022.7 1021.9 0.0
31/11:00am 28.4 21.8 4.0 21 12.6 N 28 41 15 22 1023.0 1022.3 0.0
31/10:30am 26.9 20.5 3.4 22 11.9 N 26 41 14 22 1023.4 1022.7 0.0
31/10:00am 26.4 20.1 3.6 23 11.5 NNE 26 35 14 19 1023.7 1022.9 0.0
31/09:30am 25.7 18.7 4.2 25 11.0 NNE 30 37 16 20 1023.9 1023.1 0.0
31/09:00am 24.8 18.3 4.5 27 10.3 NNE 28 39 15 21 1024.1 1023.3 0.0
31/08:30am 24.6 18.5 4.9 28 10.1 NNE 26 39 14 21 1024.1 1023.3 0.0
31/08:00am 22.4 16.7 4.9 32 8.8 NNE 24 35 13 19 1024.0 1023.2 0.0
31/07:30am 21.5 16.2 5.0 34 8.3 NE 22 33 12 18 1023.8 1023.0 0.0
31/07:00am 20.4 14.8 5.2 37 7.6 NE 24 37 13 20 1023.5 1022.8 0.0
31/06:30am 19.4 14.8 5.5 40 7.0 NE 19 26 10 14 1023.3 1022.6 0.0
31/06:00am 19.0 14.8 5.5 41 6.7 NE 17 22 9 12 1023.0 1022.3 0.0
31/05:30am 19.3 15.4 5.4 40 7.0 NE 15 26 8 14 1022.7 1021.9 0.0
31/05:00am 19.7 15.4 5.4 39 7.2 NE 17 30 9 16 1022.6 1021.8 0.0
31/04:30am 20.0 15.1 4.9 37 7.5 NE 20 30 11 16 1022.5 1021.7 0.0
31/04:00am 20.3 15.0 4.8 36 7.7 NE 22 33 12 18 1022.3 1021.5 0.0
31/03:30am 20.5 15.5 4.5 35 7.9 ENE 20 30 11 16 1022.4 1021.6 0.0
31/03:00am 20.8 15.8 4.4 34 8.1 ENE 20 30 11 16 1022.3 1021.5 0.0
31/02:30am 20.8 15.8 4.4 34 8.1 E 20 30 11 16 1022.4 1021.6 0.0
31/02:00am 20.9 15.9 4.5 34 8.1 E 20 33 11 18 1022.6 1021.8 0.0
31/01:30am 21.1 15.3 4.6 34 8.2 ESE 24 32 13 17 1022.9 1022.2 0.0
31/01:00am 21.2 15.8 4.7 34 8.2 ESE 22 32 12 17 1023.3 1022.6 0.0
31/12:30am 21.1 15.4 5.1 35 8.1 ESE 24 37 13 20 1023.8 1023.0 0.0
31/12:00am 21.1 15.4 5.1 35 8.0 ESE 24 33 13 18 1024.2 1023.4 0.0
 
Date/Time
WST
Temp
°C
App
Temp
°C
Dew
Point
°C
Rel
Hum
%
Delta-T
°C
Wind Press
QNH
hPa
Press
MSL
hPa
Rain since
9am
mm
Dir  Spd
km/h
Gust
km/h
Spd
kts
Gust
kts
30/11:30pm 21.2 15.9 5.1 35 8.1 ESE 22 28 12 15 1024.3 1023.5 0.0
30/11:00pm 21.3 16.0 5.2 35 8.1 ESE 22 30 12 16 1024.4 1023.6 0.0
30/10:30pm 21.6 16.7 5.1 34 8.3 ESE 20 30 11 16 1024.5 1023.7 0.0
30/10:00pm 21.6 17.0 5.5 35 8.2 ESE 19 26 10 14 1024.6 1023.8 0.0
30/09:30pm 21.7 17.5 5.6 35 8.2 SE 17 20 9 11 1024.7 1023.9 0.0
30/09:00pm 22.3 17.5 5.7 34 8.5 ESE 20 28 11 15 1024.4 1023.6 0.0
30/08:30pm 23.1 18.4 6.0 33 8.9 SE 20 30 11 16 1024.4 1023.6 0.0
30/08:00pm 23.6 19.1 6.0 32 9.1 SE 19 24 10 13 1024.4 1023.6 0.0
30/07:30pm 23.1 19.7 6.0 33 8.9 SE 13 17 7 9 1024.0 1023.2 0.0
30/07:00pm 23.2 19.7 5.6 32 9.0 SE 13 17 7 9 1023.4 1022.7 0.0
30/06:30pm 24.0 20.5 5.4 30 9.6 SE 13 20 7 11 1023.0 1022.3 0.0
30/06:00pm 24.9 21.1 5.7 29 10.0 SSE 15 24 8 13 1022.6 1021.8 0.0
30/05:30pm 25.7 22.4 4.8 26 10.8 SE 11 11 6 6 1022.3 1021.5 0.0
30/05:00pm 27.2 23.5 4.3 23 11.8 SSE 13 17 7 9 1022.0 1021.2 0.0
30/04:30pm 28.0 24.3 4.3 22 12.3 ESE 13 19 7 10 1021.7 1020.9 0.0
30/04:00pm 28.1 25.2 4.4 22 12.3 S 9 19 5 10 1021.6 1020.8 0.0
30/03:30pm 28.3 26.2 3.9 21 12.6 ESE 4 9 2 5 1021.7 1020.9 0.0
30/03:00pm 28.6 25.6 4.2 21 12.6 NE 9 13 5 7 1022.0 1021.2 0.0
30/02:30pm 28.1 25.0 3.7 21 12.5 SSE 9 19 5 10 1022.0 1021.2 0.0
30/02:00pm 28.8 25.8 4.3 21 12.7 SE 9 15 5 8 1022.2 1021.4 0.0
30/01:30pm 28.0 24.7 4.3 22 12.3 NNW 11 15 6 8 1022.4 1021.6 0.0
30/01:00pm 28.3 24.6 4.6 22 12.3 N 13 20 7 11 1022.7 1021.9 0.0
30/12:30pm 27.6 24.0 5.2 24 11.8 NNE 13 24 7 13 1023.1 1022.4 0.0
30/12:00pm 27.1 22.7 4.8 24 11.6 N 17 26 9 14 1023.7 1022.9 0.0
30/11:30am 27.9 23.7 5.5 24 11.9 NNE 17 26 9 14 1024.0 1023.2 0.0
30/11:00am 26.9 21.6 5.2 25 11.3 NNE 22 33 12 18 1024.4 1023.6 0.0
30/10:30am 26.5 21.9 6.5 28 10.7 NE 20 30 11 16 1024.8 1024.1 0.0
30/10:00am 25.0 20.3 6.2 30 9.9 NE 20 30 11 16 1025.2 1024.5 0.0
30/09:30am 24.0 18.9 5.8 31 9.5 NE 22 32 12 17 1025.5 1024.8 0.0
30/09:00am 23.2 17.8 6.5 34 8.7 NE 24 35 13 19 1025.7 1025.0 0.0
30/08:30am 21.9 16.4 5.8 35 8.3 ENE 24 33 13 18 1025.3 1024.6 0.0
30/08:00am 20.6 14.7 5.8 38 7.5 ENE 26 39 14 21 1025.1 1024.4 0.0
30/07:30am 19.4 13.9 5.8 41 6.9 ENE 24 35 13 19 1025.2 1024.5 0.0
30/07:00am 18.5 13.3 5.4 42 6.5 ENE 22 35 12 19 1024.9 1024.2 0.0
30/06:30am 17.5 13.2 5.1 44 6.1 ENE 17 24 9 13 1025.0 1024.3 0.0
30/06:00am 16.6 13.4 4.9 46 5.7 NE 11 17 6 9 1024.9 1024.2 0.0
30/05:30am 17.3 12.9 4.9 44 6.1 ENE 17 24 9 13 1024.3 1023.5 0.0
30/05:00am 17.9 12.5 4.5 41 6.5 ENE 22 33 12 18 1023.7 1022.9 0.0
30/04:30am 17.6 12.8 4.6 42 6.3 ENE 19 28 10 15 1023.4 1022.7 0.0
30/04:00am 17.9 12.9 4.5 41 6.5 ENE 20 28 11 15 1023.5 1022.8 0.0
30/03:30am 17.9 13.5 4.5 41 6.5 ENE 17 22 9 12 1023.7 1022.9 0.0
30/03:00am 18.1 13.6 4.3 40 6.7 ENE 17 26 9 14 1023.8 1023.0 0.0
30/02:30am 18.5 14.0 4.3 39 6.9 ENE 17 22 9 12 1023.8 1023.0 0.0
30/02:00am 18.9 13.8 3.9 37 7.2 ENE 20 30 11 16 1023.5 1022.8 0.0
30/01:30am 19.0 13.9 4.0 37 7.3 ENE 20 32 11 17 1023.5 1022.8 0.0
30/01:00am 19.2 14.2 3.8 36 7.4 ENE 19 28 10 15 1024.0 1023.2 0.0
30/12:30am 19.2 15.4 3.8 36 7.5 ENE 13 19 7 10 1024.3 1023.5 0.0
30/12:00am 16.7 13.8 4.7 45 5.8 ESE 9 13 5 7 1024.2 1023.4 0.0
 
Date/Time
WST
Temp
°C
App
Temp
°C
Dew
Point
°C
Rel
Hum
%
Delta-T
°C
Wind Press
QNH
hPa
Press
MSL
hPa
Rain since
9am
mm
Dir  Spd
km/h
Gust
km/h
Spd
kts
Gust
kts
29/11:30pm 17.3 14.0 4.3 42 6.3 SE 11 13 6 7 1024.3 1023.5 0.0
29/11:00pm 18.1 15.1 3.9 39 6.8 ESE 9 13 5 7 1024.2 1023.4 0.0
29/10:30pm 19.4 15.2 4.0 36 7.5 ESE 15 19 8 10 1024.0 1023.2 0.0
29/10:00pm 19.4 15.6 4.0 36 7.5 ESE 13 17 7 9 1024.1 1023.3 0.0
29/09:30pm 19.0 15.7 4.4 38 7.2 SE 11 15 6 8 1024.6 1023.8 0.0
29/09:00pm 19.2 15.9 4.6 38 7.2 SE 11 13 6 7 1024.5 1023.7 0.0
29/08:30pm 19.6 16.3 4.5 37 7.4 ESE 11 13 6 7 1024.4 1023.6 0.0
29/08:00pm 19.9 16.6 4.8 37 7.5 SE 11 13 6 7 1024.3 1023.5 0.0
29/07:30pm 20.3 17.2 5.5 38 7.5 SE 11 13 6 7 1024.1 1023.3 0.0
29/07:00pm 21.0 18.5 4.6 34 8.1 SE 7 9 4 5 1024.0 1023.2 0.0
29/06:30pm 22.7 18.9 3.8 29 9.4 ESE 13 17 7 9 1023.4 1022.7 0.0
29/06:00pm 23.5 20.1 4.0 28 9.7 SE 11 15 6 8 1023.1 1022.4 0.0
29/05:30pm 24.9 21.0 3.5 25 10.7 SE 13 17 7 9 1022.9 1022.2 0.0
29/05:00pm 26.1 22.2 3.4 23 11.4 ESE 13 20 7 11 1022.6 1021.8 0.0
29/04:30pm 27.4 22.6 2.5 20 12.5 ESE 17 26 9 14 1022.3 1021.5 0.0
29/04:00pm 27.8 23.7 2.1 19 12.8 SE 13 19 7 10 1022.5 1021.7 0.0
29/03:30pm 27.8 23.8 2.8 20 12.6 SE 13 22 7 12 1022.5 1021.7 0.0
29/03:00pm 27.9 24.4 3.6 21 12.4 SE 11 20 6 11 1022.7 1021.9 0.0
29/02:30pm 27.5 24.5 3.9 22 12.1 SE 9 15 5 8 1022.9 1022.2 0.0
29/02:00pm 26.8 24.7 4.0 23 11.6 NNW 4 9 2 5 1023.2 1022.5 0.0
29/01:30pm 26.5 23.9 4.3 24 11.4 N 7 9 4 5 1023.5 1022.8 0.0
29/01:00pm 26.9 24.0 4.6 24 11.5 NE 9 17 5 9 1023.8 1023.0 0.0
29/12:30pm 26.5 22.7 3.7 23 11.6 NNE 13 20 7 11 1024.1 1023.3 0.0
29/12:00pm 27.1 23.6 5.4 25 11.4 NE 13 20 7 11 1024.4 1023.6 0.0
29/11:30am 25.9 21.1 4.9 26 10.9 NE 19 30 10 16 1024.8 1024.1 0.0
29/11:00am 25.4 20.6 5.6 28 10.3 NE 20 32 11 17 1025.1 1024.4 0.0
29/10:30am 24.9 18.9 5.2 28 10.2 ENE 26 33 14 18 1025.1 1024.4 0.0
29/10:00am 24.1 18.1 5.5 30 9.6 NE 26 35 14 19 1025.6 1024.9 0.0
29/09:30am 22.6 16.6 5.5 33 8.8 ENE 26 37 14 20 1025.5 1024.8 0.0
29/09:00am 21.4 16.2 5.7 36 8.0 NE 22 30 12 16 1026.0 1025.2 1.0
29/08:30am 20.4 15.5 5.2 37 7.6 ENE 20 32 11 17 1026.1 1025.3 1.0
29/08:00am 19.9 15.2 5.2 38 7.3 ENE 19 28 10 15 1025.8 1025.1 1.0
29/07:30am 19.7 14.8 5.0 38 7.3 ENE 20 32 11 17 1025.4 1024.7 1.0
29/07:00am 18.7 13.8 5.2 41 6.7 E 20 28 11 15 1025.0 1024.3 1.0
29/06:30am 17.7 14.6 5.6 45 6.0 E 11 17 6 9 1024.9 1024.2 1.0
29/06:00am 17.7 13.9 5.9 46 5.9 ENE 15 24 8 13 1024.5 1023.7 1.0
29/05:30am 18.1 14.7 6.0 45 6.1 E 13 24 7 13 1024.1 1023.3 1.0
29/05:00am 17.6 14.1 7.4 51 5.2 E 15 20 8 11 1023.9 1023.1 1.0
29/04:30am 17.1 13.9 8.3 56 4.6 ESE 15 24 8 13 1023.4 1022.7 1.0
29/04:00am 17.5 14.0 8.9 57 4.5 ESE 17 24 9 13 1023.2 1022.5 1.0
29/03:30am 17.0 14.6 9.9 63 3.8 ESE 13 19 7 10 1023.1 1022.4 1.0
29/03:00am 17.5 14.3 9.9 61 4.1 ESE 17 22 9 12 1023.1 1022.4 1.0
29/02:30am 17.6 14.4 10.0 61 4.1 ESE 17 20 9 11 1023.1 1022.4 1.0
29/02:00am 17.8 14.7 10.2 61 4.1 ESE 17 20 9 11 1022.9 1022.2 1.0
29/01:30am 17.9 15.4 11.0 64 3.8 ESE 15 20 8 11 1023.1 1022.4 1.0
29/01:00am 18.2 15.8 11.3 64 3.8 ESE 15 19 8 10 1023.3 1022.6 1.0
29/12:30am 18.7 16.3 11.3 62 4.1 ESE 15 20 8 11 1023.9 1023.1 1.0
29/12:00am 18.9 16.9 11.5 62 4.1 E 13 19 7 10 1024.5 1023.7 1.0
 
Date/Time
WST
Temp
°C
App
Temp
°C
Dew
Point
°C
Rel
Hum
%
Delta-T
°C
Wind Press
QNH
hPa
Press
MSL
hPa
Rain since
9am
mm
Dir  Spd
km/h
Gust
km/h
Spd
kts
Gust
kts
28/11:30pm 19.0 16.3 11.8 63 4.1 ESE 17 26 9 14 1024.6 1023.8 1.0

Other formats

Comma delimited format used in spreadsheet applications
http://www.bom.gov.au/fwo/IDW60801/IDW60801.94457.axf

JavaScript Object Notation format (JSON) in row-major order
http://www.bom.gov.au/fwo/IDW60801/IDW60801.94457.json

Data quality

Most of these data are generated automatically and are frequently updated. Quality checks on data are not normally performed. It is possible for incorrect values to appear. Refer to information at About Latest Weather Observations and please check the disclaimer before using these data.